createdAt,value
2022-09-28T00:01:19.628Z,3.47
2022-09-28T00:03:49.341Z,3.63
2022-09-28T00:06:20.217Z,3.63
2022-09-28T00:08:50.279Z,3.53
2022-09-28T00:11:21.824Z,3.33
2022-09-28T00:13:52.706Z,3.53
2022-09-28T00:16:23.362Z,3.50
2022-09-28T00:18:52.397Z,3.35
2022-09-28T00:21:22.926Z,3.50
2022-09-28T00:24:18.300Z,3.65
2022-09-28T00:26:54.210Z,3.53
2022-09-28T00:29:24.872Z,3.50
2022-09-28T00:31:59.864Z,3.15
2022-09-28T00:34:28.589Z,3.70
2022-09-28T00:36:56.838Z,3.30
2022-09-28T00:39:25.467Z,3.15
2022-09-28T00:41:56.120Z,3.08
2022-09-28T00:44:44.390Z,3.33
2022-09-28T00:47:42.938Z,3.03
2022-09-28T00:50:25.459Z,2.90
2022-09-28T00:52:58.357Z,2.83
2022-09-28T00:55:34.456Z,2.75
2022-09-28T00:58:06.956Z,2.78
2022-09-28T01:00:35.457Z,2.85
2022-09-28T01:03:05.291Z,2.60
2022-09-28T01:05:35.219Z,2.50
2022-09-28T01:08:04.514Z,2.78
2022-09-28T01:10:33.502Z,2.65
2022-09-28T01:13:03.343Z,2.33
2022-09-28T01:15:41.522Z,2.38
2022-09-28T01:18:18.831Z,2.55
2022-09-28T01:20:55.887Z,2.25
2022-09-28T01:24:13.265Z,2.15
2022-09-28T01:27:07.039Z,2.50
2022-09-28T01:29:56.704Z,3.22
2022-09-28T01:32:37.782Z,2.38
2022-09-28T01:35:11.215Z,2.58
2022-09-28T01:37:46.265Z,2.10
2022-09-28T01:40:16.662Z,2.20
2022-09-28T01:42:53.067Z,2.10
2022-09-28T01:45:27.624Z,2.00
2022-09-28T01:48:00.026Z,2.30
2022-09-28T01:50:32.329Z,2.17
2022-09-28T01:53:09.594Z,2.10
2022-09-28T01:55:43.002Z,2.05
2022-09-28T01:58:16.255Z,2.28
2022-09-28T02:00:49.728Z,2.20
2022-09-28T02:03:22.895Z,2.15
2022-09-28T02:06:01.381Z,2.60
2022-09-28T02:08:34.758Z,2.40
2022-09-28T02:11:07.244Z,2.20
2022-09-28T02:13:40.745Z,2.30
2022-09-28T02:16:17.577Z,2.17
2022-09-28T02:18:47.304Z,2.15
2022-09-28T02:21:20.989Z,2.38
2022-09-28T02:23:55.247Z,2.08
2022-09-28T02:26:28.606Z,1.98
2022-09-28T02:28:59.329Z,1.92
2022-09-28T02:31:28.370Z,2.08
2022-09-28T02:33:58.399Z,1.90
2022-09-28T02:36:27.540Z,2.22
2022-09-28T02:38:57.419Z,1.60
2022-09-28T02:41:41.702Z,1.73
2022-09-28T02:44:25.552Z,1.77
2022-09-28T02:47:01.020Z,1.80
2022-09-28T02:49:42.612Z,1.60
2022-09-28T02:52:24.404Z,2.20
2022-09-28T02:55:19.334Z,1.92
2022-09-28T02:58:04.841Z,1.70
2022-09-28T03:00:45.969Z,1.88
2022-09-28T03:03:21.880Z,1.98
2022-09-28T03:06:00.434Z,1.90
2022-09-28T03:08:38.770Z,1.92
2022-09-28T03:11:15.131Z,1.50
2022-09-28T03:13:44.447Z,1.80
2022-09-28T03:16:16.730Z,2.13
2022-09-28T03:18:47.661Z,1.80
2022-09-28T03:21:17.484Z,1.85
2022-09-28T03:23:47.424Z,1.63
2022-09-28T03:26:18.101Z,2.03
2022-09-28T03:28:46.609Z,1.80
2022-09-28T03:31:22.455Z,2.22
2022-09-28T03:33:53.063Z,2.20
2022-09-28T03:36:21.539Z,2.60
2022-09-28T03:38:53.345Z,2.70
2022-09-28T03:41:21.614Z,2.35
2022-09-28T03:43:50.112Z,2.22
2022-09-28T03:46:18.640Z,2.35
2022-09-28T03:48:52.623Z,2.60
2022-09-28T03:51:20.893Z,2.50
2022-09-28T03:53:49.182Z,2.40
2022-09-28T03:56:18.029Z,4.20
2022-09-28T03:58:47.262Z,2.35
2022-09-28T04:01:18.015Z,2.55
2022-09-28T04:03:48.816Z,2.60
2022-09-28T04:06:19.246Z,2.35
2022-09-28T04:08:47.547Z,2.97
2022-09-28T04:11:16.155Z,2.90
2022-09-28T04:13:45.285Z,2.42
2022-09-28T04:16:15.965Z,2.70
2022-09-28T04:18:52.558Z,2.70
2022-09-28T04:21:38.739Z,2.65
2022-09-28T04:24:12.757Z,2.75
2022-09-28T04:26:41.355Z,2.60
2022-09-28T04:29:17.209Z,2.08
2022-09-28T04:31:52.973Z,2.50
2022-09-28T04:34:24.789Z,2.40
2022-09-28T04:36:57.779Z,2.13
2022-09-28T04:39:26.259Z,2.03
2022-09-28T04:41:57.090Z,1.85
2022-09-28T04:44:25.417Z,2.13
2022-09-28T04:47:05.128Z,2.13
2022-09-28T04:49:35.566Z,2.38
2022-09-28T04:52:09.421Z,1.92
2022-09-28T04:54:37.684Z,2.17
2022-09-28T04:57:06.330Z,2.10
2022-09-28T04:59:34.832Z,2.30
2022-09-28T05:02:03.182Z,2.30
2022-09-28T05:04:50.039Z,2.55
2022-09-28T05:07:46.845Z,2.10
2022-09-28T05:10:15.242Z,2.40
2022-09-28T05:12:43.698Z,2.42
2022-09-28T05:15:13.046Z,2.10
2022-09-28T05:17:43.206Z,1.83
2022-09-28T05:20:26.369Z,2.50
2022-09-28T05:22:56.252Z,2.25
2022-09-28T05:25:25.075Z,2.13
2022-09-28T05:28:08.783Z,2.20
2022-09-28T05:31:01.228Z,2.50
2022-09-28T05:33:47.965Z,3.53
2022-09-28T05:36:16.335Z,1.85
2022-09-28T05:38:46.387Z,2.22
2022-09-28T05:41:15.458Z,1.95
2022-09-28T05:43:44.210Z,2.20
2022-09-28T05:46:12.769Z,2.50
2022-09-28T05:48:43.173Z,2.17
2022-09-28T05:51:12.149Z,2.17
2022-09-28T05:53:40.491Z,2.33
2022-09-28T05:56:10.487Z,2.53
2022-09-28T05:58:43.138Z,2.38
2022-09-28T06:01:12.663Z,2.53
2022-09-28T06:03:41.355Z,2.40
2022-09-28T06:06:09.704Z,2.55
2022-09-28T06:08:43.003Z,2.25
2022-09-28T06:11:34.380Z,2.40
2022-09-28T06:14:09.816Z,2.42
2022-09-28T06:16:43.106Z,2.55
2022-09-28T06:19:14.311Z,2.75
2022-09-28T06:22:05.678Z,2.90
2022-09-28T06:24:39.386Z,2.70
2022-09-28T06:27:09.027Z,2.80
2022-09-28T06:29:38.249Z,2.63
2022-09-28T06:32:07.488Z,2.63
2022-09-28T06:34:37.753Z,4.28
2022-09-28T06:37:06.144Z,2.53
2022-09-28T06:39:34.673Z,2.65
2022-09-28T06:42:04.379Z,2.80
2022-09-28T06:44:54.139Z,2.88
2022-09-28T06:47:46.013Z,2.75
2022-09-28T06:50:27.940Z,2.40
2022-09-28T06:53:15.301Z,2.70
2022-09-28T06:55:52.661Z,2.65
2022-09-28T06:58:22.334Z,2.47
2022-09-28T07:00:53.787Z,2.58
2022-09-28T07:03:27.751Z,2.47
2022-09-28T07:06:16.768Z,2.30
2022-09-28T07:09:27.601Z,2.40
2022-09-28T07:12:13.673Z,2.88
2022-09-28T07:15:09.783Z,2.47
2022-09-28T07:17:54.261Z,2.30
2022-09-28T07:20:26.557Z,2.63
2022-09-28T07:22:55.618Z,3.05
2022-09-28T07:25:25.717Z,2.80
2022-09-28T07:28:28.607Z,5.18
2022-09-28T07:31:15.435Z,3.53
2022-09-28T07:34:00.251Z,2.47
2022-09-28T07:36:37.016Z,2.63
2022-09-28T07:39:05.519Z,2.85
2022-09-28T07:41:33.326Z,2.70
2022-09-28T07:44:06.613Z,2.20
2022-09-28T07:46:38.119Z,2.47
2022-09-28T07:49:24.112Z,2.58
2022-09-28T07:52:12.611Z,2.53
2022-09-28T07:55:06.670Z,2.30
2022-09-28T07:57:56.435Z,2.67
2022-09-28T08:00:49.129Z,2.28
2022-09-28T08:03:18.813Z,2.35
2022-09-28T08:05:48.691Z,2.65
2022-09-28T08:08:18.569Z,5.13
2022-09-28T08:10:47.805Z,2.65
2022-09-28T08:13:27.213Z,2.03
2022-09-28T08:16:25.593Z,1.98
2022-09-28T08:19:02.110Z,2.50
2022-09-28T08:21:45.882Z,2.35
2022-09-28T08:24:15.792Z,2.80
2022-09-28T08:26:45.171Z,1.92
2022-09-28T08:29:17.119Z,1.92
2022-09-28T08:32:01.277Z,2.55
2022-09-28T08:34:36.770Z,2.80
2022-09-28T08:37:24.888Z,4.30
2022-09-28T08:40:18.243Z,2.72
2022-09-28T08:43:49.071Z,3.00
2022-09-28T08:46:36.569Z,4.07
2022-09-28T08:49:45.360Z,3.05
2022-09-28T08:52:25.112Z,2.70
2022-09-28T08:55:29.898Z,2.53
2022-09-28T08:58:03.129Z,4.35
2022-09-28T09:00:39.771Z,2.55
2022-09-28T09:03:13.861Z,2.50
2022-09-28T09:06:04.167Z,2.97
2022-09-28T09:09:15.962Z,4.22
2022-09-28T09:12:05.744Z,2.88
2022-09-28T09:14:59.943Z,3.22
2022-09-28T09:17:42.804Z,2.97
2022-09-28T09:20:48.809Z,2.88
2022-09-28T09:23:44.069Z,2.72
2022-09-28T09:26:22.603Z,3.22
2022-09-28T09:29:09.519Z,2.80
2022-09-28T09:32:04.148Z,2.83
2022-09-28T09:34:59.120Z,2.60
2022-09-28T09:38:00.236Z,3.33
2022-09-28T09:41:03.713Z,2.65
2022-09-28T09:44:28.794Z,2.90
2022-09-28T09:47:35.762Z,2.83
2022-09-28T09:50:17.537Z,3.00
2022-09-28T09:52:51.784Z,3.20
2022-09-28T09:55:29.991Z,2.90
2022-09-28T09:58:21.836Z,2.55
2022-09-28T10:01:03.623Z,2.97
2022-09-28T10:03:53.259Z,3.28
2022-09-28T10:06:30.738Z,3.15
2022-09-28T10:09:05.173Z,7.32
2022-09-28T10:11:38.842Z,3.08
2022-09-28T10:14:17.159Z,3.55
2022-09-28T10:16:54.494Z,3.35
2022-09-28T10:19:44.757Z,3.47
2022-09-28T10:22:52.873Z,3.50
2022-09-28T10:25:23.986Z,3.70
2022-09-28T10:27:52.925Z,3.63
2022-09-28T10:30:24.116Z,3.33
2022-09-28T10:32:59.556Z,3.35
2022-09-28T10:35:42.205Z,3.58
2022-09-28T10:38:18.047Z,3.53
2022-09-28T10:40:50.625Z,3.45
2022-09-28T10:43:33.623Z,3.80
2022-09-28T10:46:07.818Z,4.10
2022-09-28T10:48:50.111Z,6.30
2022-09-28T10:51:20.045Z,5.63
2022-09-28T10:54:02.995Z,5.03
2022-09-28T10:56:49.942Z,4.72
2022-09-28T10:59:39.984Z,4.40
2022-09-28T11:02:27.383Z,4.47
2022-09-28T11:05:04.806Z,4.15
2022-09-28T11:07:47.226Z,4.10
2022-09-28T11:10:22.686Z,4.28
2022-09-28T11:12:53.936Z,4.47
2022-09-28T11:15:28.219Z,4.05
2022-09-28T11:17:56.731Z,4.95
2022-09-28T11:20:35.984Z,3.83
2022-09-28T11:23:31.793Z,3.97
2022-09-28T11:26:17.648Z,3.17
2022-09-28T11:28:52.716Z,3.30
2022-09-28T11:31:34.479Z,3.28
2022-09-28T11:37:14.002Z,3.40
2022-09-28T11:39:48.157Z,3.65
2022-09-28T11:42:31.600Z,3.63
2022-09-28T11:45:13.933Z,3.35
2022-09-28T11:47:51.622Z,3.53
2022-09-28T11:50:27.580Z,4.30
2022-09-28T11:53:05.062Z,7.13
2022-09-28T11:55:39.885Z,7.38
2022-09-28T11:58:14.491Z,6.57
2022-09-28T12:00:47.740Z,6.68
2022-09-28T12:05:53.280Z,7.40
2022-09-28T12:08:27.741Z,6.68
2022-09-28T12:11:26.752Z,7.75
2022-09-28T12:14:21.734Z,7.80
2022-09-28T12:17:07.332Z,8.07
2022-09-28T12:19:42.540Z,7.10
2022-09-28T12:22:19.579Z,7.53
2022-09-28T12:24:52.170Z,6.93
2022-09-28T12:27:26.113Z,6.28
2022-09-28T12:29:58.564Z,5.75
2022-09-28T12:32:35.694Z,5.78
2022-09-28T12:35:04.591Z,5.90
2022-09-28T12:37:57.151Z,6.00
2022-09-28T12:43:40.678Z,5.93
2022-09-28T12:46:38.559Z,6.15
2022-09-28T12:52:34.338Z,5.90
2022-09-28T12:55:23.253Z,6.25
2022-09-28T12:58:00.170Z,6.28
2022-09-28T13:00:40.075Z,5.50
2022-09-28T13:03:31.862Z,9.00
2022-09-28T13:06:38.398Z,6.22
2022-09-28T13:09:26.310Z,5.53
2022-09-28T13:12:26.137Z,6.32
2022-09-28T13:15:24.932Z,7.80
2022-09-28T13:18:02.088Z,5.10
2022-09-28T13:20:40.946Z,5.03
2022-09-28T13:23:17.689Z,4.93
2022-09-28T13:25:53.276Z,4.57
2022-09-28T13:28:26.991Z,5.32
2022-09-28T13:33:37.255Z,5.18
2022-09-28T13:36:35.606Z,4.90
2022-09-28T13:39:04.612Z,5.03
2022-09-28T13:41:34.693Z,4.80
2022-09-28T13:44:54.468Z,4.63
2022-09-28T13:47:44.532Z,5.80
2022-09-28T13:50:25.705Z,5.45
2022-09-28T13:53:04.470Z,5.10
2022-09-28T13:55:39.966Z,4.88
2022-09-28T13:58:21.809Z,4.65
2022-09-28T14:00:55.320Z,6.22
2022-09-28T14:03:29.358Z,5.13
2022-09-28T14:06:11.513Z,4.57
2022-09-28T14:08:45.727Z,4.68
2022-09-28T14:12:05.697Z,6.22
2022-09-28T14:14:51.574Z,4.30
2022-09-28T14:17:55.805Z,4.32
2022-09-28T14:20:31.897Z,3.78
2022-09-28T14:23:41.619Z,4.68
2022-09-28T14:26:31.622Z,4.20
2022-09-28T14:29:10.842Z,4.75
2022-09-28T14:31:43.564Z,4.53
2022-09-28T14:34:27.152Z,4.45
2022-09-28T14:37:14.459Z,4.00
2022-09-28T14:40:03.939Z,4.35
2022-09-28T14:42:32.519Z,3.97
2022-09-28T14:45:36.383Z,4.40
2022-09-28T14:48:15.436Z,3.80
2022-09-28T14:50:43.947Z,4.60
2022-09-28T14:53:19.737Z,4.57
2022-09-28T14:55:51.150Z,4.90
2022-09-28T14:58:25.217Z,4.68
2022-09-28T15:01:01.217Z,4.55
2022-09-28T15:03:34.262Z,4.68
2022-09-28T15:06:02.859Z,4.85
2022-09-28T15:08:40.557Z,4.03
2022-09-28T15:11:15.374Z,4.50
2022-09-28T15:13:44.122Z,5.40
2022-09-28T15:16:14.755Z,10.30
2022-09-28T15:19:12.108Z,6.57
2022-09-28T15:21:43.643Z,4.05
2022-09-28T15:24:34.738Z,3.25
2022-09-28T15:27:05.563Z,4.00
2022-09-28T15:29:34.253Z,4.25
2022-09-28T15:32:04.064Z,3.78
2022-09-28T15:34:51.671Z,3.78
2022-09-28T15:37:23.531Z,4.50
2022-09-28T15:39:55.022Z,4.03
2022-09-28T15:42:23.540Z,4.00
2022-09-28T15:45:05.385Z,4.13
2022-09-28T15:47:34.009Z,3.83
2022-09-28T15:50:04.509Z,3.72
2022-09-28T15:52:38.042Z,3.80
2022-09-28T15:55:24.412Z,3.90
2022-09-28T15:58:07.504Z,3.58
2022-09-28T16:00:36.618Z,3.33
2022-09-28T16:03:24.671Z,3.40
2022-09-28T16:06:07.864Z,3.20
2022-09-28T16:08:42.195Z,3.75
2022-09-28T16:11:21.665Z,3.58
2022-09-28T16:14:09.150Z,3.40
2022-09-28T16:16:44.471Z,3.58
2022-09-28T16:19:23.966Z,20.73
2022-09-28T16:21:53.785Z,11.43
2022-09-28T16:24:24.536Z,3.33
2022-09-28T16:27:00.125Z,3.47
2022-09-28T16:29:35.833Z,3.05
2022-09-28T16:32:35.768Z,3.30
2022-09-28T16:35:22.931Z,2.80
2022-09-28T16:37:59.898Z,3.40
2022-09-28T16:40:28.959Z,2.95
2022-09-28T16:43:03.073Z,3.28
2022-09-28T16:45:31.560Z,2.88
2022-09-28T16:48:03.772Z,3.90
2022-09-28T16:50:32.631Z,3.90
2022-09-28T16:53:22.057Z,3.20
2022-09-28T16:55:51.007Z,3.08
2022-09-28T16:58:22.502Z,3.13
2022-09-28T17:00:52.991Z,3.55
2022-09-28T17:03:23.798Z,3.20
2022-09-28T17:05:55.164Z,2.88
2022-09-28T17:08:25.742Z,2.90
2022-09-28T17:11:13.935Z,2.95
2022-09-28T17:13:45.962Z,2.65
2022-09-28T17:16:17.950Z,3.00
2022-09-28T17:18:48.111Z,2.92
2022-09-28T17:21:18.773Z,2.60
2022-09-28T17:23:48.870Z,2.42
2022-09-28T17:26:21.886Z,2.60
2022-09-28T17:28:52.087Z,2.63
2022-09-28T17:31:20.858Z,2.58
2022-09-28T17:33:49.439Z,2.60
2022-09-28T17:36:20.019Z,2.75
2022-09-28T17:38:50.431Z,2.30
2022-09-28T17:41:22.810Z,2.50
2022-09-28T17:43:55.781Z,3.38
2022-09-28T17:46:30.614Z,3.05
2022-09-28T17:49:01.042Z,2.50
2022-09-28T17:51:30.307Z,3.90
2022-09-28T17:53:59.151Z,2.08
2022-09-28T17:56:31.889Z,2.38
2022-09-28T17:59:04.894Z,2.60
2022-09-28T18:01:35.110Z,3.40
2022-09-28T18:04:05.533Z,2.15
2022-09-28T18:06:34.659Z,2.42
2022-09-28T18:09:06.523Z,2.42
2022-09-28T18:11:35.381Z,2.30
2022-09-28T18:14:10.433Z,3.45
2022-09-28T18:16:40.093Z,2.30
2022-09-28T18:19:08.402Z,2.60
2022-09-28T18:21:36.968Z,2.45
2022-09-28T18:24:05.654Z,2.20
2022-09-28T18:26:34.425Z,2.42
2022-09-28T18:29:04.294Z,2.58
2022-09-28T18:31:32.829Z,2.17
2022-09-28T18:34:04.578Z,2.80
2022-09-28T18:36:35.790Z,2.30
2022-09-28T18:39:04.935Z,2.90
2022-09-28T18:41:33.468Z,2.70
2022-09-28T18:44:02.716Z,2.60
2022-09-28T18:46:34.780Z,2.80
2022-09-28T18:49:03.750Z,3.30
2022-09-28T18:51:32.180Z,3.22
2022-09-28T18:54:07.227Z,3.28
2022-09-28T18:56:38.312Z,3.72
2022-09-28T18:59:11.964Z,5.78
2022-09-28T19:01:53.689Z,6.55
2022-09-28T19:04:22.751Z,3.63
2022-09-28T19:06:52.424Z,3.80
2022-09-28T19:09:23.098Z,3.88
2022-09-28T19:11:52.287Z,3.42
2022-09-28T19:14:23.099Z,3.83
2022-09-28T19:16:52.899Z,3.40
2022-09-28T19:19:21.710Z,3.40
2022-09-28T19:21:50.473Z,3.40
2022-09-28T19:24:20.948Z,3.15
2022-09-28T19:26:49.970Z,3.33
2022-09-28T19:29:18.578Z,3.30
2022-09-28T19:31:47.359Z,3.13
2022-09-28T19:34:17.489Z,3.42
2022-09-28T19:36:46.130Z,3.53
2022-09-28T19:39:15.524Z,3.83
2022-09-28T19:41:49.521Z,3.35
2022-09-28T19:44:24.867Z,3.38
2022-09-28T19:46:55.374Z,3.30
2022-09-28T19:49:26.739Z,2.67
2022-09-28T19:52:14.606Z,3.50
2022-09-28T19:54:45.102Z,3.70
2022-09-28T19:57:16.077Z,3.15
2022-09-28T19:59:45.911Z,3.72
2022-09-28T20:02:15.917Z,3.40
2022-09-28T20:04:46.069Z,2.95
2022-09-28T20:07:15.133Z,4.35
2022-09-28T20:09:43.865Z,4.75
2022-09-28T20:12:12.398Z,3.05
2022-09-28T20:14:41.036Z,3.35
2022-09-28T20:17:10.653Z,3.20
2022-09-28T20:19:39.237Z,3.50
2022-09-28T20:22:10.559Z,3.25
2022-09-28T20:24:38.917Z,3.42
2022-09-28T20:27:09.099Z,2.92
2022-09-28T20:29:37.559Z,3.50
2022-09-28T20:32:05.865Z,3.22
2022-09-28T20:34:34.672Z,3.05
2022-09-28T20:37:03.004Z,2.88
2022-09-28T20:39:32.667Z,3.50
2022-09-28T20:42:00.999Z,3.45
2022-09-28T20:44:29.302Z,3.35
2022-09-28T20:46:58.674Z,2.92
2022-09-28T20:49:28.193Z,3.20
2022-09-28T20:51:57.164Z,3.40
2022-09-28T20:54:25.691Z,3.10
2022-09-28T20:56:55.521Z,3.40
2022-09-28T20:59:26.486Z,3.03
2022-09-28T21:01:54.889Z,3.53
2022-09-28T21:04:25.127Z,3.72
2022-09-28T21:06:53.399Z,3.33
2022-09-28T21:09:21.731Z,3.00
2022-09-28T21:11:50.149Z,3.20
2022-09-28T21:14:20.869Z,3.33
2022-09-28T21:16:49.535Z,3.30
2022-09-28T21:19:18.011Z,3.10
2022-09-28T21:21:46.502Z,3.70
2022-09-28T21:24:15.067Z,3.67
2022-09-28T21:26:46.320Z,3.13
2022-09-28T21:29:16.129Z,11.80
2022-09-28T21:31:47.261Z,7.35
2022-09-28T21:34:18.672Z,4.68
2022-09-28T21:36:47.917Z,3.50
2022-09-28T21:39:16.430Z,3.72
2022-09-28T21:41:44.761Z,3.75
2022-09-28T21:44:13.174Z,3.90
2022-09-28T21:46:42.167Z,3.40
2022-09-28T21:49:12.715Z,3.78
2022-09-28T21:51:41.287Z,3.97
2022-09-28T21:54:09.639Z,3.60
2022-09-28T21:56:38.086Z,3.83
2022-09-28T21:59:06.522Z,3.90
2022-09-28T22:01:34.828Z,3.38
2022-09-28T22:04:03.396Z,4.00
2022-09-28T22:06:33.185Z,4.07
2022-09-28T22:09:01.682Z,3.92
2022-09-28T22:11:30.325Z,4.30
2022-09-28T22:14:00.667Z,4.53
2022-09-28T22:16:31.106Z,3.42
2022-09-28T22:19:00.710Z,4.03
2022-09-28T22:21:30.400Z,3.90
2022-09-28T22:24:03.824Z,4.30
2022-09-28T22:29:02.499Z,4.50
2022-09-28T22:31:33.271Z,4.00
2022-09-28T22:34:02.986Z,4.30
2022-09-28T22:36:31.941Z,4.20
2022-09-28T22:39:01.667Z,4.40
2022-09-28T22:41:30.083Z,4.60
2022-09-28T22:43:59.158Z,4.55
2022-09-28T22:46:29.600Z,4.78
2022-09-28T22:48:59.498Z,4.40
2022-09-28T22:51:29.664Z,5.05
2022-09-28T22:53:58.756Z,5.03
2022-09-28T22:56:31.439Z,5.38
2022-09-28T22:58:59.870Z,4.85
2022-09-28T23:01:29.695Z,4.97
2022-09-28T23:03:59.482Z,4.70
2022-09-28T23:06:30.906Z,5.05
2022-09-28T23:08:59.513Z,4.90
2022-09-28T23:11:29.739Z,5.28
2022-09-28T23:14:00.142Z,5.63
2022-09-28T23:16:30.225Z,5.38
2022-09-28T23:18:58.976Z,5.50
2022-09-28T23:21:28.175Z,5.10
2022-09-28T23:23:58.642Z,5.13
2022-09-28T23:26:30.059Z,5.43
2022-09-28T23:28:59.585Z,5.43
2022-09-28T23:31:29.990Z,5.07
2022-09-28T23:33:59.452Z,5.22
2022-09-28T23:36:27.856Z,5.30
2022-09-28T23:38:56.319Z,5.18
2022-09-28T23:41:24.817Z,5.60
2022-09-28T23:43:54.588Z,5.88
2022-09-28T23:46:23.125Z,5.35
2022-09-28T23:48:51.692Z,5.82
2022-09-28T23:51:20.018Z,5.28
2022-09-28T23:53:48.449Z,5.35
2022-09-28T23:56:16.725Z,5.68
2022-09-28T23:58:45.173Z,5.53
